バンクーバー の空港の天気 - METARとTAF

バンクーバー国際空港 ( CYVR / YVR ) - カナダ ブリティッシュコロンビア州バンクーバー
飛行場実況気象(Metar)
観測時間04/25 01:00 PDT (04/25 08:00 UTC)
風向・風速東南東 2m/s
視程10km以上
天気現象
なし
気温7℃
湿度66%
気圧1026.1hPa
METARCYVR 250800Z 11003KT 20SM SKC 07/01 A3030 RMK SLP261
過去の天気等 Google飛行場航空写真 Wunderground天気予報

過去48時間のMETAR

飛行場予報(TAF)
発表時間: 4/24 22:38 PDT (4/25 05:38 UTC)
予報対象時間: 24日23時 PDT ~ 26日5時 PDT
風向・風速不定 2m/s
視程10km以上
全天の4割程度の雲 雲底高度 6710m
25日8時 PDT ~ 25日10時 PDT に徐々に
風向・風速西北西 6m/s
25日17時 PDT から
風向・風速西北西 5m/s
視程10km以上
全天の8割程度の雲 雲底高度 4570m
TAF CYVR 250538Z 2506/2612 VRB03KT P6SM SCT220
BECMG 2515/2517 29012KT
FM260000 29010KT P6SM BKN150 RMK NXT FCST BY 250900Z